createdAt,value
2018-07-03T00:01:30.870Z,54.27
2018-07-03T00:03:58.371Z,53.52
2018-07-03T00:06:25.900Z,54.17
2018-07-03T00:08:53.467Z,54.16
2018-07-03T00:11:20.999Z,54.65
2018-07-03T00:13:48.487Z,55.18
2018-07-03T00:16:21.596Z,55.33
2018-07-03T00:18:49.112Z,54.67
2018-07-03T00:21:16.598Z,54.92
2018-07-03T00:23:44.190Z,54.60
2018-07-03T00:26:11.733Z,55.63
2018-07-03T00:28:39.243Z,55.17
2018-07-03T00:31:06.748Z,55.13
2018-07-03T00:33:34.235Z,54.86
2018-07-03T00:36:01.871Z,53.94
2018-07-03T00:38:29.363Z,52.24
2018-07-03T00:40:56.857Z,53.77
2018-07-03T00:43:24.606Z,53.66
2018-07-03T00:45:52.190Z,54.14
2018-07-03T00:48:19.712Z,52.01
2018-07-03T00:50:47.272Z,50.99
2018-07-03T00:53:14.780Z,50.53
2018-07-03T00:55:42.307Z,51.22
2018-07-03T00:58:09.823Z,51.18
2018-07-03T01:00:37.366Z,52.18
2018-07-03T01:03:05.102Z,52.07
2018-07-03T01:05:32.980Z,53.22
2018-07-03T01:08:00.550Z,53.66
2018-07-03T01:10:28.302Z,53.63
2018-07-03T01:12:56.271Z,53.22
2018-07-03T01:15:24.342Z,53.33
2018-07-03T01:17:51.852Z,54.17
2018-07-03T01:20:19.371Z,53.57
2018-07-03T01:22:46.887Z,53.37
2018-07-03T01:25:14.422Z,54.19
2018-07-03T01:27:41.959Z,54.98
2018-07-03T01:30:09.450Z,53.96
2018-07-03T01:32:37.215Z,54.28
2018-07-03T01:35:04.715Z,54.83
2018-07-03T01:37:32.217Z,54.41
2018-07-03T01:39:59.739Z,55.08
2018-07-03T01:42:27.346Z,55.41
2018-07-03T01:44:54.867Z,56.05
2018-07-03T01:47:22.346Z,53.02
2018-07-03T01:49:49.859Z,51.98
2018-07-03T01:52:17.343Z,51.78
2018-07-03T01:54:44.848Z,51.69
2018-07-03T01:57:12.367Z,52.20
2018-07-03T01:59:39.887Z,52.84
2018-07-03T02:02:07.359Z,53.03
2018-07-03T02:04:34.878Z,54.12
2018-07-03T02:07:02.375Z,54.71
2018-07-03T02:09:29.876Z,54.88
2018-07-03T02:11:57.374Z,54.96
2018-07-03T02:14:24.854Z,55.38
2018-07-03T02:16:52.359Z,56.16
2018-07-03T02:19:19.866Z,55.98
2018-07-03T02:21:47.394Z,56.22
2018-07-03T02:24:14.886Z,56.05
2018-07-03T02:26:42.395Z,55.90
2018-07-03T02:29:09.916Z,56.40
2018-07-03T02:31:37.424Z,56.50
2018-07-03T02:34:05.015Z,56.70
2018-07-03T02:36:32.575Z,57.42
2018-07-03T02:39:00.090Z,57.40
2018-07-03T02:41:27.646Z,57.43
2018-07-03T02:43:55.171Z,57.05
2018-07-03T02:46:22.702Z,56.71
2018-07-03T02:48:50.191Z,57.07
2018-07-03T02:51:17.719Z,56.32
2018-07-03T02:53:45.261Z,56.74
2018-07-03T02:56:12.751Z,57.12
2018-07-03T02:58:40.311Z,57.95
2018-07-03T03:01:07.798Z,57.96
2018-07-03T03:03:35.524Z,57.17
2018-07-03T03:06:03.034Z,57.09
2018-07-03T03:08:30.566Z,56.50
2018-07-03T03:10:58.054Z,56.99
2018-07-03T03:13:25.532Z,56.78
2018-07-03T03:15:53.055Z,55.27
2018-07-03T03:18:20.555Z,56.54
2018-07-03T03:20:48.062Z,56.82
2018-07-03T03:23:15.599Z,56.52
2018-07-03T03:25:43.111Z,56.93
2018-07-03T03:28:10.598Z,57.38
2018-07-03T03:30:38.118Z,57.34
2018-07-03T03:33:05.624Z,57.92
2018-07-03T03:35:33.495Z,57.61
2018-07-03T03:38:01.027Z,57.90
2018-07-03T03:40:28.572Z,57.26
2018-07-03T03:42:56.239Z,56.98
2018-07-03T03:45:23.746Z,56.59
2018-07-03T03:47:51.267Z,57.10
2018-07-03T03:50:18.844Z,56.87
2018-07-03T03:52:46.379Z,56.45
2018-07-03T03:55:13.927Z,56.26
2018-07-03T03:57:41.443Z,56.59
2018-07-03T04:00:09.924Z,54.86
2018-07-03T04:02:37.519Z,55.37
2018-07-03T04:05:05.034Z,54.77
2018-07-03T04:07:32.699Z,54.42
2018-07-03T04:10:00.235Z,54.40
2018-07-03T04:12:27.716Z,54.37
2018-07-03T04:14:55.286Z,54.17
2018-07-03T04:17:22.773Z,53.73
2018-07-03T04:19:50.383Z,52.64
2018-07-03T04:22:17.995Z,53.49
2018-07-03T04:24:45.578Z,52.89
2018-07-03T04:27:13.059Z,52.56
2018-07-03T04:29:40.570Z,52.84
2018-07-03T04:32:08.538Z,52.32
2018-07-03T04:34:36.062Z,52.84
2018-07-03T04:37:03.575Z,52.73
2018-07-03T04:39:31.077Z,53.18
2018-07-03T04:41:58.811Z,52.91
2018-07-03T04:44:26.374Z,53.35
2018-07-03T04:46:53.893Z,51.52
2018-07-03T04:49:21.399Z,52.48
2018-07-03T04:51:48.935Z,51.97
2018-07-03T04:54:16.423Z,52.17
2018-07-03T04:56:43.930Z,52.33
2018-07-03T04:59:11.476Z,51.68
2018-07-03T05:01:38.995Z,52.26
2018-07-03T05:04:06.499Z,51.60
2018-07-03T05:06:33.995Z,51.02
2018-07-03T05:09:01.577Z,51.01
2018-07-03T05:11:29.374Z,51.63
2018-07-03T05:13:56.901Z,51.71
2018-07-03T05:16:24.380Z,52.14
2018-07-03T05:18:51.901Z,52.17
2018-07-03T05:21:19.412Z,51.76
2018-07-03T05:23:46.958Z,51.11
2018-07-03T05:26:14.506Z,51.14
2018-07-03T05:28:42.036Z,50.56
2018-07-03T05:31:09.557Z,50.99
2018-07-03T05:33:37.054Z,50.92
2018-07-03T05:36:04.643Z,50.28
2018-07-03T05:38:32.154Z,50.16
2018-07-03T05:40:59.687Z,50.10
2018-07-03T05:43:27.337Z,50.62
2018-07-03T05:45:54.760Z,49.57
2018-07-03T05:48:22.278Z,48.63
2018-07-03T05:50:49.813Z,47.74
2018-07-03T05:53:17.327Z,48.95
2018-07-03T05:55:44.895Z,48.92
2018-07-03T05:58:12.399Z,49.16
2018-07-03T06:00:39.886Z,49.33
2018-07-03T06:03:07.423Z,48.75
2018-07-03T06:05:34.945Z,48.95
2018-07-03T06:08:02.467Z,48.90
2018-07-03T06:10:29.987Z,47.88
2018-07-03T06:12:57.539Z,48.82
2018-07-03T06:15:25.028Z,46.73
2018-07-03T06:17:52.594Z,48.21
2018-07-03T06:20:20.129Z,48.16
2018-07-03T06:22:47.670Z,46.62
2018-07-03T06:25:15.226Z,47.30
2018-07-03T06:27:42.783Z,47.69
2018-07-03T06:30:10.271Z,47.88
2018-07-03T06:32:37.779Z,48.05
2018-07-03T06:35:05.272Z,47.92
2018-07-03T06:37:32.875Z,48.10
2018-07-03T06:40:00.566Z,48.12
2018-07-03T06:42:28.075Z,46.39
2018-07-03T06:44:55.687Z,47.57
2018-07-03T06:47:23.260Z,46.59
2018-07-03T06:49:50.744Z,47.83
2018-07-03T06:52:18.262Z,47.17
2018-07-03T06:54:45.775Z,48.01
2018-07-03T06:57:13.299Z,47.95
2018-07-03T06:59:40.819Z,46.86
2018-07-03T07:02:08.334Z,47.26
2018-07-03T07:04:35.883Z,46.90
2018-07-03T07:07:03.467Z,47.21
2018-07-03T07:09:31.069Z,45.66
2018-07-03T07:11:58.571Z,46.95
2018-07-03T07:14:26.115Z,46.32
2018-07-03T07:16:53.615Z,44.75
2018-07-03T07:19:21.153Z,45.92
2018-07-03T07:21:48.709Z,45.63
2018-07-03T07:24:16.231Z,45.27
2018-07-03T07:26:43.825Z,46.08
2018-07-03T07:29:11.337Z,45.89
2018-07-03T07:31:38.868Z,45.61
2018-07-03T07:34:06.492Z,46.07
2018-07-03T07:36:33.996Z,46.14
2018-07-03T07:39:01.536Z,46.15
2018-07-03T07:41:29.087Z,46.08
2018-07-03T07:43:56.602Z,45.86
2018-07-03T07:46:24.163Z,46.17
2018-07-03T07:48:51.676Z,46.13
2018-07-03T07:51:19.186Z,44.12
2018-07-03T07:53:46.779Z,45.43
2018-07-03T07:56:14.295Z,45.51
2018-07-03T07:58:41.862Z,45.69
2018-07-03T08:01:09.767Z,45.20
2018-07-03T08:03:37.316Z,42.80
2018-07-03T08:06:04.896Z,44.29
2018-07-03T08:08:32.419Z,45.26
2018-07-03T08:10:59.973Z,44.62
2018-07-03T08:13:27.519Z,45.68
2018-07-03T08:15:55.068Z,44.06
2018-07-03T08:18:22.628Z,43.07
2018-07-03T08:20:50.159Z,45.47
2018-07-03T08:23:17.671Z,45.29
2018-07-03T08:25:45.184Z,44.16
2018-07-03T08:28:12.727Z,45.21
2018-07-03T08:30:40.243Z,44.31
2018-07-03T08:33:10.856Z,44.81
2018-07-03T08:35:38.415Z,42.38
2018-07-03T08:38:06.012Z,41.52
2018-07-03T08:40:33.555Z,40.06
2018-07-03T08:43:01.098Z,41.45
2018-07-03T08:45:28.724Z,40.40
2018-07-03T08:47:56.329Z,38.83
2018-07-03T08:50:23.854Z,40.26
2018-07-03T08:52:51.395Z,38.62
2018-07-03T08:55:18.945Z,40.38
2018-07-03T08:57:46.531Z,39.51
2018-07-03T09:00:14.059Z,40.89
2018-07-03T09:02:41.617Z,37.69
2018-07-03T09:05:09.207Z,37.85
2018-07-03T09:07:36.787Z,39.16
2018-07-03T09:10:04.550Z,38.71
2018-07-03T09:12:32.139Z,37.70
2018-07-03T09:14:59.776Z,39.71
2018-07-03T09:17:28.413Z,35.39
2018-07-03T09:19:55.974Z,37.43
2018-07-03T09:22:23.560Z,37.50
2018-07-03T09:24:52.083Z,38.21
2018-07-03T09:27:19.636Z,33.54
2018-07-03T09:29:47.186Z,33.99
2018-07-03T09:32:14.790Z,34.69
2018-07-03T09:34:42.431Z,34.25
2018-07-03T09:37:10.076Z,32.95
2018-07-03T09:39:37.631Z,30.50
2018-07-03T09:42:05.196Z,28.79
2018-07-03T09:44:32.708Z,25.85
2018-07-03T09:47:00.303Z,26.09
2018-07-03T09:49:27.822Z,23.83
2018-07-03T09:51:55.409Z,26.96
2018-07-03T09:54:22.913Z,25.10
2018-07-03T09:56:50.439Z,25.22
2018-07-03T09:59:17.985Z,21.95
2018-07-03T10:01:45.489Z,22.85
2018-07-03T10:04:12.997Z,21.49
2018-07-03T10:06:40.534Z,23.22
2018-07-03T10:09:09.308Z,23.15
2018-07-03T10:11:36.988Z,22.30
2018-07-03T10:14:04.587Z,24.68
2018-07-03T10:16:32.135Z,23.36
2018-07-03T10:18:59.647Z,27.34
2018-07-03T10:21:27.176Z,27.71
2018-07-03T10:23:54.792Z,29.69
2018-07-03T10:26:22.348Z,29.26
2018-07-03T10:28:50.005Z,29.43
2018-07-03T10:31:17.563Z,28.01
2018-07-03T10:33:45.244Z,30.34
2018-07-03T10:36:12.835Z,27.36
2018-07-03T10:38:40.357Z,26.36
2018-07-03T10:41:08.146Z,27.45
2018-07-03T10:43:35.735Z,26.96
2018-07-03T10:46:03.298Z,26.42
2018-07-03T10:48:31.006Z,26.54
2018-07-03T10:50:58.592Z,25.72
2018-07-03T10:53:26.140Z,24.83
2018-07-03T10:55:53.716Z,23.38
2018-07-03T10:58:21.302Z,25.08
2018-07-03T11:00:48.891Z,22.98
2018-07-03T11:03:16.471Z,24.54
2018-07-03T11:05:44.077Z,22.62
2018-07-03T11:08:11.623Z,23.80
2018-07-03T11:10:39.243Z,22.95
2018-07-03T11:13:06.856Z,23.50
2018-07-03T11:15:34.655Z,23.02
2018-07-03T11:18:02.243Z,23.45
2018-07-03T11:20:29.885Z,24.13
2018-07-03T11:22:57.463Z,22.64
2018-07-03T11:25:25.107Z,21.91
2018-07-03T11:27:52.685Z,23.20
2018-07-03T11:30:20.330Z,22.96
2018-07-03T11:32:48.064Z,22.50
2018-07-03T11:35:15.658Z,23.40
2018-07-03T11:37:43.947Z,24.68
2018-07-03T11:40:11.531Z,23.58
2018-07-03T11:42:39.123Z,23.03
2018-07-03T11:45:06.731Z,24.15
2018-07-03T11:47:34.308Z,23.16
2018-07-03T11:50:01.920Z,23.37
2018-07-03T11:52:29.493Z,23.74
2018-07-03T11:54:57.217Z,24.12
2018-07-03T11:57:24.770Z,24.22
2018-07-03T11:59:52.328Z,24.55
2018-07-03T12:02:19.903Z,25.46
2018-07-03T12:04:47.418Z,25.51
2018-07-03T12:07:15.012Z,24.90
2018-07-03T12:09:42.774Z,24.45
2018-07-03T12:12:10.356Z,23.96
2018-07-03T12:14:37.942Z,25.14
2018-07-03T12:17:05.522Z,24.43
2018-07-03T12:19:33.124Z,24.29
2018-07-03T12:22:00.679Z,24.28
2018-07-03T12:24:28.258Z,23.45
2018-07-03T12:26:55.879Z,23.08
2018-07-03T12:29:23.451Z,23.45
2018-07-03T12:31:51.007Z,23.83
2018-07-03T12:34:18.673Z,24.18
2018-07-03T12:36:46.235Z,24.62
2018-07-03T12:39:13.831Z,23.38
2018-07-03T12:41:41.395Z,24.41
2018-07-03T12:44:08.949Z,24.04
2018-07-03T12:46:36.824Z,24.27
2018-07-03T12:49:04.362Z,24.44
2018-07-03T12:51:31.937Z,25.05
2018-07-03T12:53:59.479Z,23.23
2018-07-03T12:56:27.061Z,25.02
2018-07-03T12:58:55.058Z,24.99
2018-07-03T13:01:22.630Z,26.12
2018-07-03T13:03:51.215Z,25.51
2018-07-03T13:06:18.883Z,25.29
2018-07-03T13:08:46.494Z,24.74
2018-07-03T13:11:14.038Z,24.72
2018-07-03T13:13:41.576Z,24.36
2018-07-03T13:16:09.136Z,24.81
2018-07-03T13:18:36.667Z,25.41
2018-07-03T13:21:04.254Z,24.56
2018-07-03T13:23:31.771Z,24.30
2018-07-03T13:25:59.344Z,24.60
2018-07-03T13:28:26.976Z,25.14
2018-07-03T13:30:54.520Z,23.58
2018-07-03T13:33:22.092Z,24.30
2018-07-03T13:35:49.699Z,23.84
2018-07-03T13:38:17.280Z,23.30
2018-07-03T13:40:44.848Z,24.66
2018-07-03T13:43:12.444Z,24.28
2018-07-03T13:45:39.983Z,23.88
2018-07-03T13:48:07.608Z,24.12
2018-07-03T13:50:35.234Z,23.75
2018-07-03T13:53:02.802Z,24.56
2018-07-03T13:55:30.914Z,23.33
2018-07-03T13:57:58.541Z,24.94
2018-07-03T14:00:26.195Z,23.92
2018-07-03T14:02:53.784Z,23.92
2018-07-03T14:05:21.475Z,24.13
2018-07-03T14:07:49.016Z,23.95
2018-07-03T14:10:16.550Z,23.40
2018-07-03T14:12:44.157Z,23.21
2018-07-03T14:15:11.731Z,23.71
2018-07-03T14:17:39.451Z,25.01
2018-07-03T14:20:07.017Z,25.31
2018-07-03T14:22:34.584Z,23.65
2018-07-03T14:25:03.637Z,24.71
2018-07-03T14:27:31.239Z,23.90
2018-07-03T14:29:58.879Z,24.88
2018-07-03T14:32:26.498Z,25.39
2018-07-03T14:34:54.112Z,25.63
2018-07-03T14:37:21.719Z,25.11
2018-07-03T14:39:49.391Z,25.22
2018-07-03T14:42:17.082Z,25.10
2018-07-03T14:44:44.710Z,25.26
2018-07-03T14:47:12.348Z,25.69
2018-07-03T14:49:39.920Z,26.05
2018-07-03T14:52:07.508Z,26.50
2018-07-03T14:54:35.104Z,26.37
2018-07-03T14:57:02.689Z,27.12
2018-07-03T14:59:30.297Z,27.56
2018-07-03T15:01:57.897Z,27.52
2018-07-03T15:04:26.423Z,28.02
2018-07-03T15:06:54.159Z,27.78
2018-07-03T15:09:21.727Z,28.65
2018-07-03T15:11:49.291Z,28.45
2018-07-03T15:14:16.973Z,29.08
2018-07-03T15:16:44.633Z,29.28
2018-07-03T15:19:17.788Z,28.45
2018-07-03T15:21:45.387Z,29.33
2018-07-03T15:24:13.002Z,29.71
2018-07-03T15:26:41.430Z,29.42
2018-07-03T15:29:10.132Z,30.18
2018-07-03T15:31:38.173Z,29.62
2018-07-03T15:34:05.776Z,30.46
2018-07-03T15:36:33.407Z,31.18
2018-07-03T15:39:00.993Z,30.74
2018-07-03T15:41:28.563Z,31.25
2018-07-03T15:44:07.508Z,31.12
2018-07-03T15:46:35.075Z,31.03
2018-07-03T15:49:02.707Z,31.22
2018-07-03T15:51:30.287Z,32.04
2018-07-03T15:53:57.881Z,31.60
2018-07-03T15:56:25.432Z,31.67
2018-07-03T15:58:53.119Z,30.86
2018-07-03T16:01:20.774Z,31.37
2018-07-03T16:04:03.136Z,31.94
2018-07-03T16:06:41.818Z,32.00
2018-07-03T16:09:13.046Z,31.77
2018-07-03T16:11:40.711Z,32.34
2018-07-03T16:14:09.004Z,32.23
2018-07-03T16:16:36.632Z,32.24
2018-07-03T16:19:10.072Z,32.04
2018-07-03T16:21:37.707Z,31.79
2018-07-03T16:24:05.610Z,31.92
2018-07-03T16:26:33.602Z,31.86
2018-07-03T16:29:01.183Z,31.25
2018-07-03T16:31:28.820Z,31.32
2018-07-03T16:33:57.100Z,31.49
2018-07-03T16:36:24.738Z,32.32
2018-07-03T16:38:52.399Z,31.85
2018-07-03T16:41:19.963Z,31.67
2018-07-03T16:43:47.524Z,31.93
2018-07-03T16:46:15.135Z,32.66
2018-07-03T16:48:42.722Z,32.24
2018-07-03T16:51:11.192Z,33.37
2018-07-03T16:53:39.215Z,32.43
2018-07-03T16:56:07.109Z,32.91
2018-07-03T16:58:34.995Z,32.97
2018-07-03T17:01:02.569Z,32.65
2018-07-03T17:03:30.216Z,31.95
2018-07-03T17:05:57.819Z,30.87
2018-07-03T17:08:25.431Z,31.85
2018-07-03T17:10:53.050Z,31.74
2018-07-03T17:13:20.676Z,32.23
2018-07-03T17:15:48.317Z,32.19
2018-07-03T17:18:15.876Z,31.88
2018-07-03T17:20:43.481Z,31.24
2018-07-03T17:23:11.065Z,31.49
2018-07-03T17:25:38.775Z,30.91
2018-07-03T17:28:06.436Z,30.92
2018-07-03T17:30:34.090Z,30.87
2018-07-03T17:33:01.759Z,31.63
2018-07-03T17:35:29.327Z,31.79
2018-07-03T17:37:56.900Z,32.05
2018-07-03T17:40:35.869Z,32.07
2018-07-03T17:44:18.229Z,32.11
2018-07-03T17:46:45.884Z,32.25
2018-07-03T17:49:13.444Z,33.30
2018-07-03T17:51:41.012Z,32.44
2018-07-03T17:54:08.626Z,33.07
2018-07-03T17:56:36.215Z,32.82
2018-07-03T17:59:03.917Z,31.81
2018-07-03T18:01:31.499Z,31.84
2018-07-03T18:03:59.079Z,32.34
2018-07-03T18:06:26.822Z,31.88
2018-07-03T18:08:54.395Z,30.94
2018-07-03T18:11:22.093Z,31.83
2018-07-03T18:13:49.689Z,31.80
2018-07-03T18:16:17.918Z,31.49
2018-07-03T18:18:45.690Z,32.21
2018-07-03T18:21:13.284Z,32.74
2018-07-03T18:23:40.983Z,33.62
2018-07-03T18:26:08.523Z,34.45
2018-07-03T18:28:36.147Z,35.93
2018-07-03T18:31:04.175Z,35.41
2018-07-03T18:33:32.692Z,35.97
2018-07-03T18:36:00.293Z,36.40
2018-07-03T18:38:27.853Z,36.84
2018-07-03T18:40:55.505Z,37.23
2018-07-03T18:43:23.119Z,37.44
2018-07-03T18:45:50.743Z,37.88
2018-07-03T18:48:18.307Z,38.26
2018-07-03T18:50:45.943Z,38.53
2018-07-03T18:53:13.641Z,39.51
2018-07-03T18:55:41.272Z,39.72
2018-07-03T18:58:08.811Z,39.75
2018-07-03T19:00:36.409Z,40.30
2018-07-03T19:03:04.008Z,40.84
2018-07-03T19:05:31.587Z,42.26
2018-07-03T19:07:59.252Z,42.17
2018-07-03T19:10:26.778Z,42.28
2018-07-03T19:12:54.354Z,43.61
2018-07-03T19:15:21.951Z,44.20
2018-07-03T19:17:49.597Z,44.13
2018-07-03T19:20:17.149Z,44.24
2018-07-03T19:22:44.727Z,45.33
2018-07-03T19:25:12.960Z,45.91
2018-07-03T19:27:40.503Z,45.54
2018-07-03T19:30:08.045Z,46.39
2018-07-03T19:32:35.583Z,46.31
2018-07-03T19:35:03.207Z,46.35
2018-07-03T19:37:30.739Z,47.09
2018-07-03T19:39:58.280Z,48.12
2018-07-03T19:42:25.877Z,49.59
2018-07-03T19:44:53.406Z,49.29
2018-07-03T19:47:20.944Z,50.04
2018-07-03T19:49:48.519Z,49.93
2018-07-03T19:52:16.054Z,51.07
2018-07-03T19:54:43.567Z,50.78
2018-07-03T19:57:11.152Z,50.84
2018-07-03T19:59:38.710Z,51.23
2018-07-03T20:02:06.382Z,51.25
2018-07-03T20:04:33.998Z,51.40
2018-07-03T20:07:01.521Z,51.92
2018-07-03T20:09:29.037Z,52.35
2018-07-03T20:11:56.588Z,52.36
2018-07-03T20:14:24.099Z,53.44
2018-07-03T20:16:51.688Z,57.09
2018-07-03T20:19:19.228Z,54.17
2018-07-03T20:21:47.123Z,54.93
2018-07-03T20:24:15.626Z,56.05
2018-07-03T20:26:43.175Z,55.34
2018-07-03T20:29:11.390Z,55.74
2018-07-03T20:31:38.969Z,59.19
2018-07-03T20:34:06.507Z,56.65
2018-07-03T20:36:34.035Z,57.00
2018-07-03T20:39:01.839Z,57.07
2018-07-03T20:41:29.405Z,59.36
2018-07-03T20:43:56.932Z,57.93
2018-07-03T20:46:24.487Z,58.75
2018-07-03T20:48:52.023Z,58.46
2018-07-03T20:51:19.624Z,58.77
2018-07-03T20:53:47.156Z,60.19
2018-07-03T20:56:14.712Z,58.84
2018-07-03T20:58:42.331Z,62.46
2018-07-03T21:01:09.870Z,61.97
2018-07-03T21:03:37.460Z,61.12
2018-07-03T21:06:05.507Z,60.74
2018-07-03T21:08:33.090Z,61.72
2018-07-03T21:11:00.686Z,61.97
2018-07-03T21:13:28.328Z,61.48
2018-07-03T21:15:55.866Z,61.58
2018-07-03T21:18:23.426Z,62.66
2018-07-03T21:20:51.037Z,61.72
2018-07-03T21:23:18.625Z,61.43
2018-07-03T21:25:46.230Z,63.38
2018-07-03T21:28:13.814Z,63.01
2018-07-03T21:30:41.363Z,64.39
2018-07-03T21:33:08.936Z,62.80
2018-07-03T21:35:36.606Z,62.88
2018-07-03T21:38:04.259Z,63.22
2018-07-03T21:40:31.887Z,64.90
2018-07-03T21:42:59.469Z,65.73
2018-07-03T21:45:26.999Z,65.64
2018-07-03T21:47:54.580Z,64.64
2018-07-03T21:50:22.155Z,65.29
2018-07-03T21:52:49.722Z,64.27
2018-07-03T21:55:17.270Z,64.54
2018-07-03T21:57:44.858Z,65.35
2018-07-03T22:00:12.475Z,66.33
2018-07-03T22:02:40.097Z,65.87
2018-07-03T22:05:07.706Z,65.26
2018-07-03T22:07:35.268Z,65.96
2018-07-03T22:10:03.172Z,65.20
2018-07-03T22:12:30.731Z,66.32
2018-07-03T22:14:58.279Z,66.43
2018-07-03T22:17:25.883Z,66.75
2018-07-03T22:19:53.448Z,65.78
2018-07-03T22:22:20.993Z,65.01
2018-07-03T22:24:48.595Z,65.47
2018-07-03T22:27:16.165Z,65.47
2018-07-03T22:29:43.804Z,66.97
2018-07-03T22:32:11.366Z,65.72
2018-07-03T22:34:38.947Z,65.02
2018-07-03T22:37:06.566Z,63.58
2018-07-03T22:39:34.113Z,62.81
2018-07-03T22:42:01.676Z,62.17
2018-07-03T22:44:29.264Z,61.86
2018-07-03T22:46:56.835Z,60.10
2018-07-03T22:49:24.416Z,59.44
2018-07-03T22:51:52.051Z,59.05
2018-07-03T22:54:19.591Z,57.32
2018-07-03T22:56:47.139Z,56.82
2018-07-03T22:59:15.571Z,56.21
2018-07-03T23:01:43.195Z,55.78
2018-07-03T23:04:10.768Z,56.19
2018-07-03T23:06:38.407Z,56.18
2018-07-03T23:09:06.928Z,56.36
2018-07-03T23:11:34.587Z,56.01
2018-07-03T23:14:02.124Z,55.37
2018-07-03T23:16:30.033Z,55.04
2018-07-03T23:18:57.652Z,55.38
2018-07-03T23:21:25.206Z,55.27
2018-07-03T23:23:52.786Z,54.72
2018-07-03T23:26:20.331Z,53.33
2018-07-03T23:28:47.893Z,53.93
2018-07-03T23:31:15.445Z,53.89
2018-07-03T23:33:42.992Z,53.07
2018-07-03T23:36:10.682Z,53.43
2018-07-03T23:38:38.256Z,54.00
2018-07-03T23:41:06.112Z,54.01
2018-07-03T23:43:33.695Z,53.29
2018-07-03T23:46:00.575Z,54.05
2018-07-03T23:48:39.445Z,53.29
2018-07-03T23:51:19.346Z,54.31
2018-07-03T23:53:58.547Z,54.30
2018-07-03T23:56:38.427Z,53.76
2018-07-03T23:59:17.560Z,53.72
